createdAt,value
2022-08-17T00:01:52.277Z,21.66
2022-08-17T00:06:57.602Z,21.78
2022-08-17T00:12:40.629Z,21.85
2022-08-17T00:17:24.202Z,21.88
2022-08-17T00:22:28.822Z,21.89
2022-08-17T00:27:38.589Z,21.94
2022-08-17T00:33:15.572Z,21.78
2022-08-17T00:38:10.127Z,21.63
2022-08-17T00:43:18.081Z,21.51
2022-08-17T00:48:29.122Z,21.44
2022-08-17T00:53:38.021Z,21.32
2022-08-17T00:58:41.876Z,21.33
2022-08-17T01:03:44.982Z,21.11
2022-08-17T01:08:52.320Z,21.06
2022-08-17T01:14:00.735Z,21.02
2022-08-17T01:19:10.357Z,21.02
2022-08-17T01:24:15.113Z,20.98
2022-08-17T01:29:20.496Z,21.02
2022-08-17T01:34:25.145Z,20.99
2022-08-17T01:39:47.842Z,20.98
2022-08-17T01:44:56.930Z,20.86
2022-08-17T01:50:06.176Z,20.74
2022-08-17T01:55:12.606Z,20.66
2022-08-17T02:00:16.193Z,20.58
2022-08-17T02:05:20.153Z,20.46
2022-08-17T02:10:25.112Z,20.34
2022-08-17T02:15:37.682Z,20.34
2022-08-17T02:20:42.954Z,20.30
2022-08-17T02:25:50.624Z,20.13
2022-08-17T02:31:01.562Z,20.21
2022-08-17T02:36:06.749Z,20.24
2022-08-17T02:41:13.302Z,20.32
2022-08-17T02:46:16.271Z,20.19
2022-08-17T02:51:19.530Z,20.19
2022-08-17T02:56:24.571Z,20.25
2022-08-17T03:01:28.399Z,20.18
2022-08-17T03:06:32.116Z,20.17
2022-08-17T03:11:36.927Z,20.09
2022-08-17T03:16:41.559Z,19.97
2022-08-17T03:21:45.729Z,19.98
2022-08-17T03:26:50.346Z,20.01
2022-08-17T03:31:53.678Z,19.91
2022-08-17T03:36:57.247Z,20.05
2022-08-17T03:42:07.389Z,20.10
2022-08-17T03:47:29.516Z,20.19
2022-08-17T03:52:51.812Z,20.21
2022-08-17T03:57:56.887Z,20.33
2022-08-17T04:03:00.033Z,20.39
2022-08-17T04:08:03.234Z,20.46
2022-08-17T04:13:10.854Z,20.44
2022-08-17T04:18:13.845Z,20.51
2022-08-17T04:23:19.173Z,20.55
2022-08-17T04:28:24.026Z,20.63
2022-08-17T04:33:29.169Z,20.76
2022-08-17T04:38:34.825Z,20.90
2022-08-17T04:43:41.851Z,20.96
2022-08-17T04:48:48.543Z,21.10
2022-08-17T04:53:54.682Z,21.08
2022-08-17T04:59:02.807Z,21.13
2022-08-17T05:04:21.350Z,21.30
2022-08-17T05:09:32.906Z,21.38
2022-08-17T05:14:39.461Z,21.46
2022-08-17T05:19:42.544Z,21.64
2022-08-17T05:24:53.996Z,21.77
2022-08-17T05:30:00.136Z,21.88
2022-08-17T05:35:03.258Z,22.05
2022-08-17T05:40:07.826Z,21.97
2022-08-17T05:45:16.161Z,22.20
2022-08-17T05:50:37.081Z,22.64
2022-08-17T05:55:48.441Z,22.83
2022-08-17T06:01:00.998Z,22.56
2022-08-17T06:06:21.975Z,22.19
2022-08-17T06:11:35.861Z,22.09
2022-08-17T06:16:45.417Z,22.16
2022-08-17T06:21:51.323Z,22.56
2022-08-17T06:26:55.773Z,22.68
2022-08-17T06:32:00.130Z,22.81
2022-08-17T06:37:21.503Z,23.26
2022-08-17T06:43:02.569Z,23.46
2022-08-17T06:48:05.240Z,23.70
2022-08-17T06:53:19.348Z,23.76
2022-08-17T06:58:29.759Z,24.09
2022-08-17T07:03:38.427Z,24.36
2022-08-17T07:08:55.989Z,24.43
2022-08-17T07:14:07.553Z,24.54
2022-08-17T07:19:13.460Z,24.28
2022-08-17T07:24:33.355Z,24.57
2022-08-17T07:29:41.513Z,24.66
2022-08-17T07:35:02.282Z,24.99
2022-08-17T07:40:17.553Z,25.23
2022-08-17T07:45:39.437Z,25.23
2022-08-17T07:50:49.682Z,25.06
2022-08-17T07:55:54.674Z,25.04
2022-08-17T08:01:07.449Z,25.51
2022-08-17T08:06:31.718Z,25.76
2022-08-17T08:11:40.121Z,25.58
2022-08-17T08:17:01.581Z,25.54
2022-08-17T08:22:11.537Z,25.47
2022-08-17T08:27:27.530Z,25.27
2022-08-17T08:32:48.514Z,25.34
2022-08-17T08:37:59.425Z,25.82
2022-08-17T08:43:12.927Z,26.06
2022-08-17T08:48:53.086Z,25.77
2022-08-17T08:54:10.680Z,26.31
2022-08-17T08:59:24.514Z,25.97
2022-08-17T09:05:10.286Z,26.06
2022-08-17T09:10:12.331Z,26.22
2022-08-17T09:15:21.402Z,26.67
2022-08-17T09:20:30.414Z,26.57
2022-08-17T09:25:46.408Z,26.72
2022-08-17T09:30:52.830Z,26.81
2022-08-17T09:36:00.584Z,26.66
2022-08-17T09:41:14.425Z,26.83
2022-08-17T09:46:22.290Z,26.78
2022-08-17T09:51:33.638Z,27.57
2022-08-17T09:57:05.935Z,27.56
2022-08-17T10:03:00.872Z,27.30
2022-08-17T10:08:12.663Z,27.47
2022-08-17T10:13:29.363Z,27.42
2022-08-17T10:18:44.252Z,27.54
2022-08-17T10:24:10.082Z,27.74
2022-08-17T10:29:20.083Z,27.91
2022-08-17T10:34:41.419Z,27.97
2022-08-17T10:39:52.169Z,28.00
2022-08-17T10:45:03.900Z,27.83
2022-08-17T10:50:49.967Z,27.97
2022-08-17T10:56:18.408Z,27.91
2022-08-17T11:02:01.821Z,27.57
2022-08-17T11:07:12.743Z,27.16
2022-08-17T11:12:27.183Z,27.21
2022-08-17T11:18:01.739Z,27.53
2022-08-17T11:23:33.519Z,27.47
2022-08-17T11:28:52.598Z,27.68
2022-08-17T11:34:00.319Z,27.95
2022-08-17T11:39:15.601Z,27.99
2022-08-17T11:44:38.223Z,27.80
2022-08-17T11:50:15.833Z,28.17
2022-08-17T11:56:00.941Z,28.01
2022-08-17T12:01:07.647Z,27.80
2022-08-17T12:06:34.867Z,27.94
2022-08-17T12:12:11.350Z,27.65
2022-08-17T12:17:22.459Z,27.93
2022-08-17T12:22:54.118Z,27.83
2022-08-17T12:28:06.631Z,28.06
2022-08-17T12:33:25.740Z,28.29
2022-08-17T12:38:35.426Z,28.62
2022-08-17T12:43:38.464Z,28.32
2022-08-17T12:48:59.036Z,28.08
2022-08-17T12:54:03.110Z,27.94
2022-08-17T12:59:07.537Z,28.37
2022-08-17T13:04:24.621Z,28.32
2022-08-17T13:09:35.350Z,28.17
2022-08-17T13:14:45.857Z,28.15
2022-08-17T13:19:51.667Z,28.09
2022-08-17T13:24:57.577Z,27.83
2022-08-17T13:30:03.108Z,27.96
2022-08-17T13:35:39.823Z,28.06
2022-08-17T13:40:50.150Z,28.38
2022-08-17T13:45:53.648Z,28.45
2022-08-17T13:51:22.026Z,29.03
2022-08-17T13:56:38.656Z,28.95
2022-08-17T14:01:52.554Z,29.19
2022-08-17T14:07:01.117Z,28.89
2022-08-17T14:12:09.436Z,28.77
2022-08-17T14:17:13.035Z,28.71
2022-08-17T14:22:23.897Z,28.57
2022-08-17T14:27:28.336Z,28.29
2022-08-17T14:32:33.191Z,28.43
2022-08-17T14:37:38.076Z,28.68
2022-08-17T14:42:43.622Z,28.49
2022-08-17T14:47:49.140Z,28.28
2022-08-17T14:52:55.410Z,28.16
2022-08-17T14:57:58.684Z,28.25
2022-08-17T15:03:02.515Z,28.32
2022-08-17T15:08:08.285Z,28.35
2022-08-17T15:13:17.273Z,28.49
2022-08-17T15:18:20.585Z,28.42
2022-08-17T15:23:27.729Z,28.55
2022-08-17T15:28:31.748Z,28.47
2022-08-17T15:33:35.238Z,28.16
2022-08-17T15:38:39.566Z,28.32
2022-08-17T15:43:44.712Z,28.24
2022-08-17T15:48:50.210Z,28.14
2022-08-17T15:53:57.032Z,27.91
2022-08-17T15:59:01.397Z,27.84
2022-08-17T16:04:07.248Z,27.63
2022-08-17T16:09:30.491Z,27.47
2022-08-17T16:14:35.005Z,27.29
2022-08-17T16:19:39.563Z,26.99
2022-08-17T16:24:57.214Z,26.83
2022-08-17T16:30:01.355Z,26.78
2022-08-17T16:35:05.814Z,26.76
2022-08-17T16:40:12.195Z,26.57
2022-08-17T16:45:19.902Z,26.33
2022-08-17T16:50:24.282Z,26.24
2022-08-17T16:55:28.799Z,26.18
2022-08-17T17:00:33.449Z,26.17
2022-08-17T17:05:55.182Z,26.12
2022-08-17T17:11:09.075Z,26.16
2022-08-17T17:16:18.578Z,26.15
2022-08-17T17:21:25.707Z,26.17
2022-08-17T17:26:49.108Z,26.11
2022-08-17T17:32:03.509Z,26.01
2022-08-17T17:37:13.443Z,25.88
2022-08-17T17:42:22.309Z,25.75
2022-08-17T17:47:25.409Z,25.49
2022-08-17T17:52:38.828Z,25.44
2022-08-17T17:57:56.271Z,25.31
2022-08-17T18:03:21.089Z,25.27
2022-08-17T18:08:36.409Z,25.15
2022-08-17T18:13:56.680Z,25.08
2022-08-17T18:19:01.745Z,25.00
2022-08-17T18:24:07.363Z,24.92
2022-08-17T18:29:36.268Z,24.89
2022-08-17T18:34:48.714Z,24.80
2022-08-17T18:39:52.190Z,24.72
2022-08-17T18:44:56.972Z,24.59
2022-08-17T18:50:21.852Z,24.54
2022-08-17T18:55:29.197Z,24.51
2022-08-17T19:00:38.977Z,24.41
2022-08-17T19:05:44.252Z,24.33
2022-08-17T19:10:49.024Z,24.31
2022-08-17T19:16:14.222Z,24.23
2022-08-17T19:21:22.240Z,24.15
2022-08-17T19:26:54.709Z,24.06
2022-08-17T19:31:56.631Z,24.00
2022-08-17T19:37:04.125Z,23.75
2022-08-17T19:42:14.484Z,23.70
2022-08-17T19:47:43.773Z,23.58
2022-08-17T19:52:53.184Z,23.47
2022-08-17T19:58:03.929Z,23.25
2022-08-17T20:03:16.680Z,23.22
2022-08-17T20:08:24.274Z,23.07
2022-08-17T20:13:33.352Z,22.99
2022-08-17T20:18:47.774Z,22.97
2022-08-17T20:23:54.229Z,22.88
2022-08-17T20:29:36.811Z,23.03
2022-08-17T20:34:46.887Z,22.99
2022-08-17T20:40:26.202Z,23.02
2022-08-17T20:45:55.195Z,22.91
2022-08-17T20:51:15.618Z,22.69
2022-08-17T20:56:50.317Z,22.49
2022-08-17T21:02:18.665Z,22.39
2022-08-17T21:07:29.689Z,22.41
2022-08-17T21:12:42.239Z,22.27
2022-08-17T21:17:50.560Z,22.26
2022-08-17T21:23:16.421Z,22.31
2022-08-17T21:28:30.158Z,22.31
2022-08-17T21:33:39.181Z,22.23
2022-08-17T21:38:57.417Z,22.18
2022-08-17T21:44:06.140Z,22.09
2022-08-17T21:49:13.800Z,22.09
2022-08-17T21:54:36.124Z,22.03
2022-08-17T21:59:40.378Z,21.84
2022-08-17T22:04:44.092Z,21.67
2022-08-17T22:09:50.369Z,21.54
2022-08-17T22:15:00.847Z,21.36
2022-08-17T22:20:14.702Z,21.30
2022-08-17T22:25:22.888Z,21.48
2022-08-17T22:30:35.856Z,21.50
2022-08-17T22:35:41.338Z,21.46
2022-08-17T22:40:48.654Z,21.38
2022-08-17T22:45:54.963Z,21.34
2022-08-17T22:51:12.584Z,21.34
2022-08-17T22:56:40.109Z,21.23
2022-08-17T23:01:45.878Z,21.29
2022-08-17T23:06:48.780Z,21.39
2022-08-17T23:11:57.703Z,21.34
2022-08-17T23:17:01.142Z,21.25
2022-08-17T23:22:06.911Z,21.20
2022-08-17T23:27:11.787Z,21.15
2022-08-17T23:32:17.417Z,21.11
2022-08-17T23:37:20.949Z,21.07
2022-08-17T23:42:25.460Z,21.09
2022-08-17T23:47:28.876Z,21.00
2022-08-17T23:52:32.489Z,21.10
2022-08-17T23:57:37.797Z,20.88
